Time;durP1;ratioP1;P1;durP2;ratioP2;P2;SDS_P1;SDS_P2;PMS_P1;PMS_P2;Temp;Humidity;BMP_temperature;BMP_pressure;BME280_temperature;BME280_humidity;BME280_pressure;Samples;Min_cycle;Max_cycle;Signal;HPM_P1;HPM_P2
2021/09/17 00:01:12;;;;;;;28.10;19.95;;;14.70;99.90;;;;;;5072538;28;20044;-61
2021/09/17 00:03:38;;;;;;;21.05;17.95;;;14.70;99.90;;;;;;5072603;28;20394;-60
2021/09/17 00:06:04;;;;;;;25.13;19.48;;;14.70;99.90;;;;;;5072575;28;20119;-60
2021/09/17 00:08:30;;;;;;;23.38;20.60;;;14.70;99.90;;;;;;5072623;28;20040;-60
2021/09/17 00:10:56;;;;;;;25.13;19.90;;;14.60;99.90;;;;;;5072403;28;20487;-60
2021/09/17 00:13:23;;;;;;;30.27;20.75;;;14.50;99.90;;;;;;5072710;28;20041;-61
2021/09/17 00:15:49;;;;;;;24.73;18.77;;;14.50;99.90;;;;;;5072585;28;20048;-61
2021/09/17 00:18:15;;;;;;;29.25;18.42;;;14.50;99.90;;;;;;5072337;28;20485;-61
2021/09/17 00:20:42;;;;;;;24.20;19.98;;;14.50;99.90;;;;;;5104752;28;20055;-61
2021/09/17 00:23:07;;;;;;;22.42;18.27;;;14.60;99.90;;;;;;5072250;28;20089;-61
2021/09/17 00:25:34;;;;;;;21.00;18.73;;;14.60;99.90;;;;;;5072290;28;20436;-61
2021/09/17 00:28:00;;;;;;;22.55;19.50;;;14.60;99.90;;;;;;5070860;28;20063;-61
2021/09/17 00:30:28;;;;;;;22.20;18.60;;;14.60;99.90;;;;;;5072364;28;20044;-61
2021/09/17 00:32:55;;;;;;;23.33;19.67;;;14.60;99.90;;;;;;5072256;28;20044;-61
2021/09/17 00:35:21;;;;;;;24.98;19.15;;;14.60;99.90;;;;;;5072150;28;20470;-61
2021/09/17 00:37:47;;;;;;;23.83;18.73;;;14.60;99.90;;;;;;5072177;28;20028;-61
2021/09/17 00:40:13;;;;;;;25.73;19.83;;;14.60;99.90;;;;;;5072071;28;20394;-60
2021/09/17 00:42:39;;;;;;;24.02;18.80;;;14.60;99.90;;;;;;5104482;28;20128;-61
2021/09/17 00:45:10;;;;;;;25.73;18.38;;;14.60;99.90;;;;;;5072168;28;20453;-60
2021/09/17 00:47:37;;;;;;;19.00;16.95;;;14.60;99.90;;;;;;5072364;28;20032;-61
2021/09/17 00:50:06;;;;;;;29.58;20.58;;;14.50;99.90;;;;;;5072106;28;20119;-60
2021/09/17 00:52:32;;;;;;;22.42;18.70;;;14.50;99.90;;;;;;5071952;28;20040;-61
2021/09/17 00:54:59;;;;;;;25.73;18.83;;;14.50;99.90;;;;;;5072066;28;20110;-61
2021/09/17 00:57:24;;;;;;;19.98;17.85;;;14.50;99.90;;;;;;5072092;28;20269;-61
2021/09/17 00:59:51;;;;;;;30.42;20.23;;;14.30;99.90;;;;;;5071738;28;20111;-61
2021/09/17 01:02:17;;;;;;;27.55;20.08;;;14.30;99.90;;;;;;5071875;28;20085;-61
2021/09/17 01:04:42;;;;;;;24.98;20.23;;;14.30;99.90;;;;;;5073349;28;20086;-61
2021/09/17 01:07:09;;;;;;;22.75;18.45;;;14.30;99.90;;;;;;5091005;28;20436;-60
2021/09/17 01:09:35;;;;;;;23.30;20.05;;;14.30;99.90;;;;;;5092217;28;20040;-61
2021/09/17 01:12:04;;;;;;;35.28;23.10;;;14.30;99.90;;;;;;5087747;28;20094;-61
2021/09/17 01:14:34;;;;;;;22.95;18.60;;;14.30;99.90;;;;;;5075621;28;20489;-60
2021/09/17 01:17:01;;;;;;;24.55;20.95;;;14.20;99.90;;;;;;5076047;28;20040;-61
2021/09/17 01:19:27;;;;;;;22.33;19.80;;;14.30;99.90;;;;;;5075843;28;20371;-61
2021/09/17 01:22:00;;;;;;;22.60;20.13;;;14.20;99.90;;;;;;5075860;28;20044;-60
2021/09/17 01:24:27;;;;;;;32.08;21.83;;;14.20;99.90;;;;;;5075646;28;20037;-61
2021/09/17 01:26:53;;;;;;;22.13;19.40;;;14.20;99.90;;;;;;5074470;28;20135;-60
2021/09/17 01:29:19;;;;;;;25.83;20.08;;;14.20;99.90;;;;;;5075643;28;20048;-61
2021/09/17 01:31:45;;;;;;;24.20;20.25;;;14.20;99.90;;;;;;5108167;28;20052;-61
2021/09/17 01:34:14;;;;;;;23.17;19.35;;;14.20;99.90;;;;;;5075493;28;20542;-61
2021/09/17 01:36:40;;;;;;;26.77;20.92;;;14.20;99.90;;;;;;5075495;28;20454;-61
2021/09/17 01:39:06;;;;;;;26.13;19.70;;;14.20;99.90;;;;;;5075676;28;20064;-61
2021/09/17 01:41:32;;;;;;;26.90;20.98;;;14.10;99.90;;;;;;5075503;28;20037;-61
2021/09/17 01:43:57;;;;;;;25.13;20.48;;;14.10;99.90;;;;;;5075440;28;20044;-61
2021/09/17 01:46:23;;;;;;;29.77;20.15;;;14.10;99.90;;;;;;5075330;28;20091;-61
2021/09/17 01:48:49;;;;;;;28.92;22.13;;;14.10;99.90;;;;;;5075217;28;20036;-61
2021/09/17 01:51:15;;;;;;;25.55;21.20;;;14.10;99.90;;;;;;5075366;28;20040;-61
2021/09/17 01:53:41;;;;;;;28.05;19.38;;;14.10;99.90;;;;;;5075228;28;20044;-61
2021/09/17 01:56:06;;;;;;;22.63;19.05;;;14.00;99.90;;;;;;5075026;28;20032;-61
2021/09/17 01:58:33;;;;;;;24.13;20.50;;;14.00;99.90;;;;;;5075126;28;20093;-60
2021/09/17 02:01:00;;;;;;;24.73;19.92;;;14.00;99.90;;;;;;5075073;28;20072;-61
2021/09/17 02:03:26;;;;;;;22.88;20.13;;;14.00;99.90;;;;;;5074927;28;20044;-61
2021/09/17 02:05:51;;;;;;;25.80;21.45;;;14.00;99.90;;;;;;5075258;28;20067;-61
2021/09/17 02:08:17;;;;;;;24.50;20.50;;;14.10;99.90;;;;;;5073948;28;20634;-60
2021/09/17 02:10:43;;;;;;;27.23;21.27;;;14.00;99.90;;;;;;5075094;28;20064;-60
2021/09/17 02:13:09;;;;;;;25.52;20.40;;;14.00;99.90;;;;;;5074945;28;20078;-61
2021/09/17 02:15:35;;;;;;;26.95;21.58;;;14.00;99.90;;;;;;5074790;28;20052;-61
2021/09/17 02:18:01;;;;;;;28.20;20.95;;;14.00;99.90;;;;;;5107363;28;20044;-61
2021/09/17 02:20:27;;;;;;;24.85;20.23;;;14.10;99.90;;;;;;5074909;28;20041;-61
2021/09/17 02:22:54;;;;;;;24.88;19.35;;;14.00;99.90;;;;;;5073302;28;20051;-61
2021/09/17 02:25:19;;;;;;;22.25;18.65;;;14.00;99.90;;;;;;5074425;28;20397;-61
2021/09/17 02:27:47;;;;;;;24.02;19.40;;;14.00;99.90;;;;;;5074371;28;20057;-61
2021/09/17 02:30:14;;;;;;;24.30;19.60;;;13.90;99.90;;;;;;5074460;28;20044;-61
2021/09/17 02:32:40;;;;;;;21.33;18.80;;;13.90;99.90;;;;;;5074283;28;20052;-61
2021/09/17 02:35:07;;;;;;;27.58;20.02;;;13.90;99.90;;;;;;5074549;28;20398;-61
2021/09/17 02:37:34;;;;;;;23.60;19.25;;;13.90;99.90;;;;;;5074552;28;20064;-61
2021/09/17 02:40:00;;;;;;;21.88;19.52;;;13.80;99.90;;;;;;5107093;28;20389;-61
2021/09/17 02:42:26;;;;;;;27.63;20.33;;;13.80;99.90;;;;;;5074168;28;20044;-61
2021/09/17 02:44:52;;;;;;;26.23;19.55;;;13.80;99.90;;;;;;5074173;28;20033;-61
2021/09/17 02:47:18;;;;;;;22.40;18.90;;;13.80;99.90;;;;;;5074104;28;20102;-61
2021/09/17 02:49:44;;;;;;;25.17;20.10;;;13.80;99.90;;;;;;5074318;28;20094;-60
2021/09/17 02:52:10;;;;;;;27.48;21.73;;;13.80;99.90;;;;;;5074121;28;20036;-61
2021/09/17 02:54:35;;;;;;;25.52;21.85;;;13.90;99.90;;;;;;5074056;28;20063;-61
2021/09/17 02:57:01;;;;;;;28.52;21.30;;;13.90;99.90;;;;;;5074100;28;20480;-61
2021/09/17 02:59:27;;;;;;;25.33;21.10;;;14.00;99.90;;;;;;5072765;28;20044;-61
2021/09/17 03:01:53;;;;;;;30.38;22.48;;;14.00;99.90;;;;;;5074007;28;20048;-61
2021/09/17 03:04:19;;;;;;;27.58;22.50;;;14.00;99.90;;;;;;5074115;28;20040;-61
2021/09/17 03:06:44;;;;;;;27.08;22.48;;;14.10;99.90;;;;;;5074232;28;20067;-61
2021/09/17 03:09:10;;;;;;;30.83;23.13;;;14.00;99.90;;;;;;5074041;28;20043;-61
2021/09/17 03:11:36;;;;;;;32.05;23.25;;;14.00;99.90;;;;;;5073559;28;20032;-61
2021/09/17 03:14:02;;;;;;;25.40;20.98;;;14.10;99.90;;;;;;5073685;28;20090;-61
2021/09/17 03:16:27;;;;;;;31.95;21.85;;;14.10;99.90;;;;;;5073521;28;20486;-61
2021/09/17 03:18:53;;;;;;;25.20;21.10;;;14.00;99.90;;;;;;5072273;28;20048;-61
2021/09/17 03:21:19;;;;;;;31.05;20.70;;;14.00;99.90;;;;;;5073362;28;20044;-61
2021/09/17 03:23:45;;;;;;;25.02;20.35;;;14.10;99.90;;;;;;5106086;28;20105;-61
2021/09/17 03:26:10;;;;;;;29.30;22.08;;;14.00;99.90;;;;;;5073416;28;20049;-61
2021/09/17 03:28:36;;;;;;;33.05;23.00;;;14.10;99.90;;;;;;5073312;28;20410;-61
2021/09/17 03:31:02;;;;;;;25.85;20.13;;;14.10;99.90;;;;;;5073201;28;20117;-61
2021/09/17 03:33:28;;;;;;;30.15;22.10;;;14.10;99.90;;;;;;5072009;28;20040;-61
2021/09/17 03:35:54;;;;;;;28.02;22.60;;;14.10;99.90;;;;;;5072767;28;20119;-60
2021/09/17 03:38:19;;;;;;;26.38;21.70;;;14.00;99.90;;;;;;5073236;28;20177;-61
2021/09/17 03:40:47;;;;;;;25.35;21.92;;;14.10;99.90;;;;;;5072010;28;20394;-61
2021/09/17 03:43:15;;;;;;;26.67;21.75;;;14.10;99.90;;;;;;5073118;28;20046;-61
2021/09/17 03:45:41;;;;;;;27.90;23.67;;;14.10;99.90;;;;;;5072993;28;20037;-61
2021/09/17 03:48:10;;;;;;;32.50;23.58;;;14.10;99.90;;;;;;5073137;28;20048;-61
2021/09/17 03:50:37;;;;;;;28.05;22.17;;;14.10;99.90;;;;;;5073086;28;20127;-61
2021/09/17 03:53:04;;;;;;;34.63;24.88;;;14.10;99.90;;;;;;5072954;28;20032;-61
2021/09/17 03:55:30;;;;;;;32.60;23.70;;;14.20;99.90;;;;;;5071667;28;20040;-61
2021/09/17 03:57:56;;;;;;;25.00;21.30;;;14.10;99.90;;;;;;5072716;28;20032;-61
2021/09/17 04:00:22;;;;;;;26.70;22.00;;;14.20;99.90;;;;;;5072957;28;20403;-61
2021/09/17 04:02:47;;;;;;;26.52;21.85;;;14.10;99.90;;;;;;5072663;28;20111;-61
2021/09/17 04:05:13;;;;;;;30.00;23.77;;;14.10;99.90;;;;;;5072867;28;20040;-61
2021/09/17 04:07:40;;;;;;;29.35;23.92;;;14.10;99.90;;;;;;5072932;28;20167;-61
2021/09/17 04:10:08;;;;;;;27.98;23.08;;;14.10;99.90;;;;;;5072662;28;20053;-61
2021/09/17 04:12:34;;;;;;;27.88;23.02;;;14.10;99.90;;;;;;5072353;28;20079;-60
2021/09/17 04:15:00;;;;;;;30.88;22.33;;;14.00;99.90;;;;;;5072740;28;20072;-61
2021/09/17 04:17:26;;;;;;;25.40;21.95;;;14.10;99.90;;;;;;5072851;28;20033;-61
2021/09/17 04:19:52;;;;;;;28.17;22.90;;;14.20;99.90;;;;;;5072573;28;20191;-61
2021/09/17 04:22:18;;;;;;;31.50;24.40;;;14.20;99.90;;;;;;5072579;28;20037;-61
2021/09/17 04:24:44;;;;;;;29.48;23.80;;;14.20;99.90;;;;;;5072392;28;20045;-61
2021/09/17 04:27:10;;;;;;;30.65;25.05;;;14.20;99.90;;;;;;5072045;28;20055;-61
2021/09/17 04:29:36;;;;;;;32.80;25.13;;;14.30;99.90;;;;;;5104767;28;20055;-61
2021/09/17 04:32:02;;;;;;;36.75;25.48;;;14.30;99.90;;;;;;5072386;28;20040;-60
2021/09/17 04:34:28;;;;;;;32.28;25.38;;;14.30;99.90;;;;;;5072072;28;20061;-60
2021/09/17 04:36:54;;;;;;;33.67;25.00;;;14.30;99.90;;;;;;5083141;28;20112;-60
2021/09/17 04:39:20;;;;;;;30.42;23.52;;;14.30;99.90;;;;;;5079832;28;20390;-60
2021/09/17 04:41:46;;;;;;;35.90;24.05;;;14.30;99.90;;;;;;5072012;28;20029;-61
2021/09/17 04:44:11;;;;;;;27.65;23.48;;;14.40;99.90;;;;;;5072271;28;20497;-61
2021/09/17 04:46:37;;;;;;;27.13;22.05;;;14.40;99.90;;;;;;5072116;28;20036;-61
2021/09/17 04:49:03;;;;;;;27.65;23.73;;;14.40;99.90;;;;;;5071896;28;20097;-61
2021/09/17 04:51:30;;;;;;;50.13;26.90;;;14.40;99.90;;;;;;5071872;28;20041;-61
2021/09/17 04:53:56;;;;;;;34.20;24.88;;;14.50;99.90;;;;;;5073717;28;20086;-60
2021/09/17 04:56:22;;;;;;;32.10;25.45;;;14.50;99.90;;;;;;5071785;28;20028;-60
2021/09/17 04:58:49;;;;;;;28.75;24.33;;;14.50;99.90;;;;;;5080832;28;20028;-61
2021/09/17 05:01:14;;;;;;;29.35;23.63;;;14.50;99.90;;;;;;5092182;28;20039;-61
2021/09/17 05:03:43;;;;;;;34.78;24.55;;;14.50;99.90;;;;;;5091994;28;20386;-61
2021/09/17 05:06:09;;;;;;;28.58;23.48;;;14.40;99.90;;;;;;5092091;28;20044;-61
2021/09/17 05:08:35;;;;;;;27.25;22.75;;;14.40;99.90;;;;;;5092019;28;20044;-61
2021/09/17 05:11:01;;;;;;;31.88;24.60;;;14.40;99.90;;;;;;5081746;28;20044;-61
2021/09/17 05:13:27;;;;;;;30.40;24.70;;;14.40;99.90;;;;;;5089611;28;20032;-61
2021/09/17 05:15:52;;;;;;;30.35;24.92;;;14.50;99.90;;;;;;5085846;28;20037;-61
2021/09/17 05:18:18;;;;;;;29.95;24.95;;;14.50;99.90;;;;;;5086073;28;20094;-60
2021/09/17 05:20:44;;;;;;;29.95;25.27;;;14.60;99.90;;;;;;5091997;28;20044;-61
2021/09/17 05:23:10;;;;;;;32.45;23.80;;;14.60;99.90;;;;;;5091553;28;20040;-61
2021/09/17 05:25:35;;;;;;;32.92;25.48;;;14.60;99.90;;;;;;5091800;28;20044;-61
2021/09/17 05:28:01;;;;;;;27.83;23.33;;;14.60;99.90;;;;;;5091645;28;20443;-61
2021/09/17 05:30:27;;;;;;;29.55;23.92;;;14.70;99.90;;;;;;5090553;28;20044;-60
2021/09/17 05:32:53;;;;;;;33.15;24.85;;;14.70;99.90;;;;;;5091317;28;20496;-61
2021/09/17 05:35:19;;;;;;;32.42;24.52;;;14.70;99.90;;;;;;5091656;28;20036;-61
2021/09/17 05:37:45;;;;;;;26.48;23.63;;;14.70;99.90;;;;;;5091969;28;20039;-61
2021/09/17 05:40:11;;;;;;;29.40;23.80;;;14.60;99.90;;;;;;5091477;28;20047;-60
2021/09/17 05:42:37;;;;;;;30.52;24.42;;;14.70;99.90;;;;;;5091514;28;20036;-60
2021/09/17 05:45:04;;;;;;;29.40;22.83;;;14.70;99.90;;;;;;5091592;28;20505;-61
2021/09/17 05:47:31;;;;;;;29.08;24.40;;;14.70;99.90;;;;;;5091510;28;20039;-61
2021/09/17 05:49:57;;;;;;;31.15;25.98;;;14.70;99.90;;;;;;5091478;28;20036;-61
2021/09/17 05:52:23;;;;;;;31.17;24.15;;;14.70;99.90;;;;;;5091384;28;20397;-60
2021/09/17 05:54:48;;;;;;;28.67;22.50;;;14.70;99.90;;;;;;5091310;28;20389;-60
2021/09/17 05:57:15;;;;;;;36.63;25.50;;;14.70;99.90;;;;;;5091222;28;20034;-60
2021/09/17 05:59:41;;;;;;;27.85;23.92;;;14.60;99.90;;;;;;5093828;28;20036;-61
2021/09/17 06:02:08;;;;;;;27.92;24.85;;;14.60;99.90;;;;;;5093953;28;20052;-60
2021/09/17 06:04:37;;;;;;;28.80;25.17;;;14.70;99.90;;;;;;5095230;28;20040;-60
2021/09/17 06:07:03;;;;;;;;;;;14.70;99.90;;;;;;5095475;28;20424;-60
2021/09/17 06:09:28;;;;;;;29.13;22.40;;;14.70;99.90;;;;;;5095220;28;19916;-60
2021/09/17 06:11:55;;;;;;;28.23;24.08;;;14.70;99.90;;;;;;5095045;28;20048;-60
2021/09/17 06:14:20;;;;;;;23.90;21.33;;;14.70;99.90;;;;;;5095332;28;20036;-61
2021/09/17 06:16:46;;;;;;;25.85;22.17;;;14.80;99.90;;;;;;5094991;28;20116;-60
2021/09/17 06:19:12;;;;;;;30.80;24.98;;;14.80;99.90;;;;;;5094719;28;20032;-60
2021/09/17 06:21:38;;;;;;;31.90;24.13;;;14.80;99.90;;;;;;5094665;28;20036;-61
2021/09/17 06:24:04;;;;;;;30.58;24.20;;;14.80;99.90;;;;;;5094947;28;20036;-60
2021/09/17 06:26:31;;;;;;;30.10;24.00;;;14.80;99.90;;;;;;5094525;28;20044;-61
2021/09/17 06:29:06;;;;;;;26.92;23.15;;;14.80;99.90;;;;;;5094776;28;20047;-60
2021/09/17 06:31:33;;;;;;;29.45;23.77;;;14.80;99.90;;;;;;5094508;28;20123;-60
2021/09/17 06:33:59;;;;;;;28.67;24.85;;;14.80;99.90;;;;;;5094574;28;20046;-60
2021/09/17 06:36:25;;;;;;;32.90;24.95;;;14.90;99.90;;;;;;5094394;28;20044;-60
2021/09/17 06:38:51;;;;;;;35.45;26.48;;;14.90;99.90;;;;;;5094754;28;20095;-60
2021/09/17 06:41:17;;;;;;;32.38;25.73;;;15.00;99.90;;;;;;5094746;28;20051;-60
2021/09/17 06:43:43;;;;;;;33.28;25.13;;;15.10;99.90;;;;;;5094375;28;20040;-60
2021/09/17 06:46:08;;;;;;;31.50;26.20;;;15.10;99.90;;;;;;5094265;28;20047;-60
2021/09/17 06:48:34;;;;;;;32.30;26.55;;;15.20;99.90;;;;;;5094250;28;20430;-61
2021/09/17 06:51:01;;;;;;;30.67;25.23;;;15.20;99.90;;;;;;5094088;28;20075;-60
2021/09/17 06:53:27;;;;;;;31.60;25.63;;;15.30;99.90;;;;;;5094151;28;20507;-60
2021/09/17 06:55:53;;;;;;;37.17;27.58;;;15.30;99.90;;;;;;5094080;28;20072;-60
2021/09/17 06:58:19;;;;;;;32.22;25.75;;;15.40;99.90;;;;;;5094051;28;20040;-60
2021/09/17 07:00:44;;;;;;;28.75;25.30;;;15.50;99.90;;;;;;5094013;28;20113;-60
2021/09/17 07:03:10;;;;;;;33.30;26.98;;;15.50;99.90;;;;;;5090920;28;20028;-60
2021/09/17 07:05:36;;;;;;;32.40;27.50;;;15.50;99.90;;;;;;5092589;28;20521;-60
2021/09/17 07:08:04;;;;;;;28.02;24.98;;;15.60;99.90;;;;;;5094144;28;20040;-60
2021/09/17 07:10:31;;;;;;;29.92;25.50;;;15.70;99.90;;;;;;5092851;28;20048;-60
2021/09/17 07:12:58;;;;;;;34.88;26.67;;;15.70;99.90;;;;;;5093599;28;20385;-60
2021/09/17 07:15:24;;;;;;;32.17;26.00;;;15.80;99.90;;;;;;5093791;28;20086;-60
2021/09/17 07:17:50;;;;;;;28.50;24.65;;;15.90;99.90;;;;;;5093623;28;20432;-60
2021/09/17 07:20:16;;;;;;;28.88;24.35;;;16.00;99.90;;;;;;5093491;28;20032;-60
2021/09/17 07:22:42;;;;;;;27.20;23.55;;;16.00;99.90;;;;;;5093646;28;20071;-60
2021/09/17 07:25:08;;;;;;;30.13;23.27;;;16.10;99.90;;;;;;5093644;28;20040;-60
2021/09/17 07:27:34;;;;;;;25.67;22.70;;;16.20;99.90;;;;;;5093440;28;20095;-60
2021/09/17 07:30:00;;;;;;;28.50;24.05;;;16.20;99.90;;;;;;5093509;28;20082;-60
2021/09/17 07:32:26;;;;;;;27.38;24.38;;;16.30;99.90;;;;;;5093107;28;20470;-60
2021/09/17 07:34:54;;;;;;;29.88;23.27;;;16.30;99.90;;;;;;5093480;28;20078;-60
2021/09/17 07:37:21;;;;;;;29.13;25.33;;;16.40;99.90;;;;;;5093216;28;20553;-60
2021/09/17 07:39:46;;;;;;;30.98;25.65;;;16.40;99.90;;;;;;5093317;28;20057;-60
2021/09/17 07:42:12;;;;;;;29.90;25.05;;;16.40;99.90;;;;;;5093302;28;20044;-60
2021/09/17 07:44:38;;;;;;;28.95;25.35;;;16.50;99.90;;;;;;5093495;28;20564;-60
2021/09/17 07:47:05;;;;;;;29.08;25.25;;;16.50;99.90;;;;;;5093331;28;20070;-61
2021/09/17 07:49:31;;;;;;;32.13;26.30;;;16.60;99.90;;;;;;5093183;28;20097;-60
2021/09/17 07:51:57;;;;;;;30.88;26.30;;;16.60;99.90;;;;;;5093075;28;20039;-60
2021/09/17 07:54:24;;;;;;;28.58;25.10;;;16.60;99.90;;;;;;5093028;28;20032;-60
2021/09/17 07:56:51;;;;;;;28.15;24.35;;;16.70;99.90;;;;;;5092977;28;20044;-60
2021/09/17 07:59:16;;;;;;;28.10;24.60;;;16.60;99.90;;;;;;5092781;28;20036;-60
2021/09/17 08:01:42;;;;;;;27.45;24.55;;;16.60;99.90;;;;;;5092740;28;20101;-60
2021/09/17 08:04:08;;;;;;;26.55;23.67;;;16.70;99.90;;;;;;5092979;28;20047;-61
2021/09/17 08:06:35;;;;;;;28.35;25.45;;;16.80;99.90;;;;;;5092860;28;20111;-60
2021/09/17 08:09:01;;;;;;;27.40;24.55;;;16.80;99.90;;;;;;5092888;28;20450;-59
2021/09/17 08:11:27;;;;;;;29.95;23.38;;;16.90;99.90;;;;;;5092533;28;20083;-60
2021/09/17 08:13:52;;;;;;;29.00;24.80;;;17.00;99.90;;;;;;5092621;28;20036;-60
2021/09/17 08:16:19;;;;;;;28.17;25.27;;;17.00;99.90;;;;;;5092517;28;20035;-60
2021/09/17 08:18:45;;;;;;;30.58;23.15;;;17.10;99.90;;;;;;5092778;28;20040;-60
2021/09/17 08:21:13;;;;;;;25.80;21.73;;;17.10;99.90;;;;;;5092079;28;20521;-60
2021/09/17 08:23:39;;;;;;;25.35;21.15;;;17.20;99.90;;;;;;5092427;28;20478;-60
2021/09/17 08:26:08;;;;;;;23.25;20.20;;;17.20;99.90;;;;;;5092412;28;20051;-61
2021/09/17 08:28:34;;;;;;;22.13;19.58;;;17.40;99.90;;;;;;5092276;28;20071;-60
2021/09/17 08:31:02;;;;;;;19.30;17.40;;;17.50;99.90;;;;;;5091720;28;20422;-60
2021/09/17 08:33:29;;;;;;;20.55;18.52;;;17.50;99.90;;;;;;5091739;28;20093;-60
2021/09/17 08:35:54;;;;;;;21.08;18.90;;;17.60;99.90;;;;;;5092371;28;20043;-60
2021/09/17 08:38:20;;;;;;;20.80;18.70;;;17.60;99.90;;;;;;5092300;28;20048;-61
2021/09/17 08:40:46;;;;;;;21.40;18.58;;;17.70;99.90;;;;;;5092142;28;20032;-60
2021/09/17 08:43:12;;;;;;;23.23;19.63;;;17.70;99.90;;;;;;5092158;28;20078;-60
2021/09/17 08:45:38;;;;;;;23.92;19.50;;;17.70;99.90;;;;;;5091964;28;20075;-60
2021/09/17 08:48:04;;;;;;;21.95;19.75;;;17.70;99.90;;;;;;5092285;28;20051;-60
2021/09/17 08:50:30;;;;;;;27.17;20.33;;;17.70;99.90;;;;;;5091741;28;20092;-60
2021/09/17 08:52:56;;;;;;;23.50;18.13;;;17.80;99.90;;;;;;5090948;28;20493;-61
2021/09/17 08:55:22;;;;;;;23.95;20.10;;;17.70;99.90;;;;;;5092065;28;20035;-61
2021/09/17 08:57:48;;;;;;;20.05;18.15;;;17.80;99.90;;;;;;5092329;28;20047;-60
2021/09/17 09:00:26;;;;;;;19.60;17.60;;;17.70;99.90;;;;;;5092289;28;20729;-60
2021/09/17 09:02:57;;;;;;;20.60;16.25;;;17.70;99.90;;;;;;5091991;28;20497;-60
2021/09/17 09:05:33;;;;;;;20.40;17.25;;;17.80;99.90;;;;;;5091960;28;20040;-61
2021/09/17 09:08:00;;;;;;;20.58;17.55;;;17.80;99.90;;;;;;5080456;28;20059;-60
2021/09/17 09:10:26;;;;;;;21.08;16.58;;;17.90;99.90;;;;;;5071535;28;20064;-61
2021/09/17 09:12:58;;;;;;;18.92;16.92;;;17.90;99.90;;;;;;5071758;28;20032;-60
2021/09/17 09:15:26;;;;;;;17.65;15.85;;;18.00;99.90;;;;;;5071452;28;20043;-60
2021/09/17 09:17:56;;;;;;;19.05;16.38;;;18.00;99.90;;;;;;5071490;28;20364;-60
2021/09/17 09:20:26;;;;;;;17.90;15.95;;;18.10;99.90;;;;;;5071861;28;20032;-61
2021/09/17 09:23:14;;;;;;;17.98;15.90;;;18.20;99.90;;;;;;5071725;28;20462;-60
2021/09/17 09:25:59;;;;;;;15.48;11.88;;;18.30;99.90;;;;;;5071589;28;20037;-60
2021/09/17 09:28:37;;;;;;;9.02;6.75;;;18.40;99.90;;;;;;5071304;28;20065;-60
2021/09/17 09:31:11;;;;;;;8.90;5.20;;;18.40;99.90;;;;;;5071409;28;20048;-61
2021/09/17 09:33:38;;;;;;;7.18;5.35;;;18.40;99.90;;;;;;5072056;28;20067;-60
2021/09/17 09:36:14;;;;;;;7.75;5.72;;;18.40;99.90;;;;;;5075493;28;20124;-60
2021/09/17 09:38:46;;;;;;;10.57;5.95;;;18.40;99.90;;;;;;5075366;28;20048;-60
2021/09/17 09:41:15;;;;;;;7.95;6.00;;;18.40;99.90;;;;;;5075411;28;20040;-61
2021/09/17 09:43:50;;;;;;;9.35;6.80;;;18.40;99.90;;;;;;5075229;28;20033;-61
2021/09/17 09:46:20;;;;;;;10.48;7.22;;;18.50;99.90;;;;;;5075441;28;20040;-60
2021/09/17 09:48:58;;;;;;;8.88;6.45;;;18.50;99.90;;;;;;5075283;28;20040;-60
2021/09/17 09:51:29;;;;;;;7.43;4.50;;;18.60;99.90;;;;;;5075105;28;20048;-61
2021/09/17 09:53:57;;;;;;;6.10;3.70;;;18.70;99.90;;;;;;5075473;28;20401;-61
2021/09/17 09:56:23;;;;;;;6.53;3.50;;;18.90;99.90;;;;;;5074870;28;20048;-61
2021/09/17 09:58:50;;;;;;;5.97;3.35;;;19.00;99.90;;;;;;5075057;28;20079;-61
2021/09/17 10:01:22;;;;;;;5.65;2.72;;;19.10;99.90;;;;;;5107717;28;20433;-60
2021/09/17 10:03:52;;;;;;;8.27;2.95;;;19.20;99.90;;;;;;5074855;28;20394;-60
2021/09/17 10:06:18;;;;;;;5.78;3.00;;;19.30;99.90;;;;;;5074662;28;20478;-60
2021/09/17 10:08:46;;;;;;;5.38;2.97;;;19.40;99.90;;;;;;5074623;28;20077;-60
2021/09/17 10:11:12;;;;;;;3.30;2.00;;;19.40;99.90;;;;;;5074814;28;20040;-61
2021/09/17 10:13:38;;;;;;;3.10;1.80;;;19.40;99.90;;;;;;5074690;28;20041;-60
2021/09/17 10:16:05;;;;;;;4.07;2.08;;;19.40;99.90;;;;;;5074719;28;20036;-61
2021/09/17 10:18:31;;;;;;;2.97;2.00;;;19.40;99.90;;;;;;5074632;28;20063;-61
2021/09/17 10:20:57;;;;;;;2.38;1.60;;;19.20;99.90;;;;;;5074525;28;20039;-61
2021/09/17 10:23:31;;;;;;;2.95;1.50;;;19.20;99.90;;;;;;5074439;28;20036;-61
2021/09/17 10:26:06;;;;;;;4.85;2.30;;;19.10;99.90;;;;;;5074572;28;20036;-60
2021/09/17 10:28:33;;;;;;;3.88;2.15;;;19.10;99.90;;;;;;5074233;28;20411;-61
2021/09/17 10:31:19;;;;;;;4.85;2.17;;;19.20;99.90;;;;;;5074247;28;20044;-60
2021/09/17 10:33:46;;;;;;;3.35;2.15;;;19.20;99.90;;;;;;5074053;28;20055;-60
2021/09/17 10:36:12;;;;;;;5.68;1.88;;;19.20;99.90;;;;;;5082246;28;20034;-61
2021/09/17 10:38:38;;;;;;;4.57;2.60;;;19.30;99.90;;;;;;5090570;28;20070;-60
2021/09/17 10:41:06;;;;;;;4.18;1.80;;;19.40;99.90;;;;;;5074460;28;20084;-60
2021/09/17 10:43:39;;;;;;;4.88;1.90;;;19.40;99.90;;;;;;5074328;28;20072;-60
2021/09/17 10:46:28;;;;;;;7.88;2.58;;;19.40;99.90;;;;;;5070071;28;20043;-60
2021/09/17 10:48:57;;;;;;;4.43;1.88;;;19.40;99.90;;;;;;5074402;28;20137;-60
2021/09/17 10:51:37;;;;;;;4.82;2.00;;;19.40;99.90;;;;;;5083741;28;20040;-60
2021/09/17 10:54:19;;;;;;;4.93;1.90;;;19.30;99.90;;;;;;5074195;28;20089;-61
2021/09/17 10:56:48;;;;;;;5.88;2.63;;;19.40;99.90;;;;;;5074011;28;20056;-61
2021/09/17 10:59:20;;;;;;;;;;;19.30;99.90;;;;;;5074900;28;20044;-61
2021/09/17 11:01:55;;;;;;;6.75;2.15;;;19.30;99.90;;;;;;5073811;28;20390;-61
2021/09/17 11:04:23;;;;;;;4.07;1.88;;;19.30;99.90;;;;;;5074011;28;20040;-61
2021/09/17 11:06:50;;;;;;;3.95;1.75;;;19.30;99.90;;;;;;5073961;28;20121;-60
2021/09/17 11:09:40;;;;;;;6.72;2.30;;;19.20;99.90;;;;;;5073755;28;20051;-60
2021/09/17 11:12:38;;;;;;;2.60;1.73;;;19.20;99.90;;;;;;5079525;28;20075;-60
2021/09/17 11:15:13;;;;;;;3.83;2.20;;;19.20;99.90;;;;;;5071542;28;20570;-60
2021/09/17 11:17:52;;;;;;;4.20;2.30;;;19.20;99.90;;;;;;5071382;28;20044;-60
2021/09/17 11:20:29;;;;;;;3.08;1.65;;;19.20;99.90;;;;;;5071507;28;20402;-60
2021/09/17 11:23:08;;;;;;;12.48;2.88;;;19.20;99.90;;;;;;5071202;28;20045;-60
2021/09/17 11:25:38;;;;;;;;;;;19.30;99.90;;;;;;5071687;28;20055;-61
2021/09/17 11:28:07;;;;;;;4.05;1.75;;;19.30;99.90;;;;;;5071044;28;20435;-60
2021/09/17 11:30:35;;;;;;;3.95;2.10;;;19.20;99.90;;;;;;5071370;28;20045;-61
2021/09/17 11:33:16;;;;;;;6.25;2.58;;;19.30;99.90;;;;;;5068791;28;20044;-61
2021/09/17 11:35:42;;;;;;;3.22;2.58;;;19.20;99.90;;;;;;5070341;28;20044;-61
2021/09/17 11:38:07;;;;;;;6.25;3.00;;;19.20;99.90;;;;;;5069932;28;20041;-61
2021/09/17 11:40:33;;;;;;;7.35;3.58;;;19.20;99.90;;;;;;5070863;28;20041;-61
2021/09/17 11:43:14;;;;;;;7.20;4.90;;;19.20;99.90;;;;;;5037389;28;20052;-61
2021/09/17 11:45:45;;;;;;;6.85;4.10;;;19.20;99.90;;;;;;5070754;28;20399;-61
2021/09/17 11:48:34;;;;;;;6.45;3.40;;;19.20;99.90;;;;;;5070688;28;20098;-61
2021/09/17 11:51:10;;;;;;;6.20;3.50;;;19.20;99.90;;;;;;5055396;28;20049;-61
2021/09/17 11:53:44;;;;;;;4.40;3.10;;;19.10;99.90;;;;;;5093219;28;20082;-61
2021/09/17 11:56:10;;;;;;;6.25;3.53;;;19.10;99.90;;;;;;5092553;28;20392;-61
2021/09/17 11:58:46;;;;;;;5.35;3.55;;;19.20;99.90;;;;;;5093005;28;20036;-61
2021/09/17 12:01:19;;;;;;;3.80;2.65;;;19.10;99.90;;;;;;5091793;28;20060;-61
2021/09/17 12:03:46;;;;;;;4.05;2.58;;;19.10;99.90;;;;;;5093015;28;20040;-61
2021/09/17 12:06:14;;;;;;;5.15;3.15;;;19.10;99.90;;;;;;5093015;28;20035;-61
2021/09/17 12:08:40;;;;;;;6.03;3.00;;;19.10;99.90;;;;;;5092869;28;20044;-62
2021/09/17 12:11:05;;;;;;;8.85;4.25;;;19.00;99.90;;;;;;5092641;28;20367;-61
2021/09/17 12:13:31;;;;;;;4.22;3.03;;;19.00;99.90;;;;;;5092648;28;20040;-61
2021/09/17 12:15:58;;;;;;;3.45;2.70;;;18.90;99.90;;;;;;5092484;28;20037;-61
2021/09/17 12:18:27;;;;;;;3.42;2.10;;;18.90;99.90;;;;;;5092691;28;20094;-61
2021/09/17 12:20:55;;;;;;;;;;;18.90;99.90;;;;;;5093136;28;20044;-61
2021/09/17 12:23:32;;;;;;;6.30;2.58;;;18.90;99.90;;;;;;5092386;28;20437;-60
2021/09/17 12:26:16;;;;;;;6.22;2.95;;;18.90;99.90;;;;;;5092435;28;20488;-61
2021/09/17 12:28:47;;;;;;;4.97;3.00;;;18.90;99.90;;;;;;5092167;28;20127;-61
2021/09/17 12:31:35;;;;;;;9.40;2.50;;;18.80;99.90;;;;;;5092340;28;20464;-61
2021/09/17 12:34:21;;;;;;;4.13;2.30;;;18.90;99.90;;;;;;5092424;28;20036;-62
2021/09/17 12:36:55;;;;;;;4.10;2.60;;;18.90;99.90;;;;;;5092204;28;20078;-61